createdAt,value
2023-05-18T00:01:04.895Z,6.81
2023-05-18T00:03:34.286Z,6.84
2023-05-18T00:06:04.970Z,6.85
2023-05-18T00:08:34.020Z,6.86
2023-05-18T00:11:02.752Z,6.90
2023-05-18T00:13:32.075Z,6.90
2023-05-18T00:16:02.717Z,6.90
2023-05-18T00:18:32.521Z,6.92
2023-05-18T00:21:02.376Z,6.92
2023-05-18T00:23:33.859Z,6.93
2023-05-18T00:26:03.512Z,6.90
2023-05-18T00:28:32.007Z,6.93
2023-05-18T00:31:02.140Z,6.99
2023-05-18T00:33:31.131Z,7.00
2023-05-18T00:36:00.415Z,7.02
2023-05-18T00:38:29.666Z,6.98
2023-05-18T00:40:58.499Z,6.97
2023-05-18T00:43:27.810Z,6.93
2023-05-18T00:45:56.581Z,6.95
2023-05-18T00:48:27.312Z,6.96
2023-05-18T00:50:56.040Z,6.96
2023-05-18T00:53:24.890Z,6.97
2023-05-18T00:55:53.754Z,6.94
2023-05-18T00:58:22.602Z,6.94
2023-05-18T01:00:51.421Z,6.91
2023-05-18T01:03:21.602Z,6.93
2023-05-18T01:05:55.914Z,6.94
2023-05-18T01:08:25.425Z,6.88
2023-05-18T01:10:56.563Z,6.89
2023-05-18T01:13:32.277Z,6.91
2023-05-18T01:16:02.744Z,6.93
2023-05-18T01:18:35.733Z,6.94
2023-05-18T01:21:13.784Z,6.95
2023-05-18T01:23:55.839Z,6.95
2023-05-18T01:26:30.173Z,6.93
2023-05-18T01:29:01.142Z,6.93
2023-05-18T01:31:30.760Z,6.88
2023-05-18T01:34:00.441Z,6.93
2023-05-18T01:36:29.367Z,6.97
2023-05-18T01:39:01.831Z,6.98
2023-05-18T01:41:33.660Z,7.00
2023-05-18T01:44:03.643Z,7.00
2023-05-18T01:46:38.391Z,6.99
2023-05-18T01:49:10.646Z,6.97
2023-05-18T01:51:41.596Z,6.97
2023-05-18T01:54:11.731Z,6.97
2023-05-18T01:56:42.680Z,6.94
2023-05-18T01:59:11.777Z,6.93
2023-05-18T02:01:40.940Z,6.93
2023-05-18T02:04:11.003Z,6.92
2023-05-18T02:06:40.262Z,6.91
2023-05-18T02:09:09.252Z,6.90
2023-05-18T02:11:38.377Z,6.89
2023-05-18T02:14:17.322Z,6.91
2023-05-18T02:16:47.580Z,6.89
2023-05-18T02:19:17.757Z,6.83
2023-05-18T02:21:46.547Z,6.82
2023-05-18T02:24:15.926Z,6.82
2023-05-18T02:26:44.538Z,6.81
2023-05-18T02:29:14.833Z,6.82
2023-05-18T02:31:43.687Z,6.84
2023-05-18T02:34:12.457Z,6.83
2023-05-18T02:36:42.935Z,6.86
2023-05-18T02:39:11.795Z,6.86
2023-05-18T02:41:40.739Z,6.85
2023-05-18T02:44:09.358Z,6.86
2023-05-18T02:46:39.670Z,6.86
2023-05-18T02:49:08.535Z,6.86
2023-05-18T02:51:37.046Z,6.86
2023-05-18T02:54:05.926Z,6.87
2023-05-18T02:56:34.987Z,6.83
2023-05-18T02:59:04.354Z,6.83
2023-05-18T03:01:37.207Z,6.82
2023-05-18T03:04:07.534Z,6.81
2023-05-18T03:06:36.476Z,6.79
2023-05-18T03:09:05.242Z,6.83
2023-05-18T03:11:34.427Z,6.82
2023-05-18T03:14:03.139Z,6.82
2023-05-18T03:16:32.186Z,6.80
2023-05-18T03:19:02.558Z,6.73
2023-05-18T03:21:36.310Z,6.76
2023-05-18T03:24:05.046Z,6.74
2023-05-18T03:26:34.328Z,6.74
2023-05-18T03:29:03.357Z,6.75
2023-05-18T03:31:31.899Z,6.76
2023-05-18T03:34:01.071Z,6.73
2023-05-18T03:36:29.697Z,6.70
2023-05-18T03:38:59.919Z,6.68
2023-05-18T03:41:30.132Z,6.70
2023-05-18T03:43:59.202Z,6.73
2023-05-18T03:46:28.076Z,6.75
2023-05-18T03:48:59.678Z,6.74
2023-05-18T03:51:29.412Z,6.76
2023-05-18T03:54:00.062Z,6.77
2023-05-18T03:56:31.420Z,6.79
2023-05-18T03:59:00.521Z,6.79
2023-05-18T04:01:30.704Z,6.81
2023-05-18T04:04:00.027Z,6.80
2023-05-18T04:06:29.129Z,6.83
2023-05-18T04:09:02.827Z,6.85
2023-05-18T04:11:31.222Z,6.87
2023-05-18T04:14:01.297Z,6.92
2023-05-18T04:16:30.173Z,6.95
2023-05-18T04:18:58.856Z,7.00
2023-05-18T04:21:27.666Z,7.04
2023-05-18T04:23:59.958Z,7.08
2023-05-18T04:26:30.174Z,7.09
2023-05-18T04:29:00.483Z,7.07
2023-05-18T04:31:31.224Z,7.05
2023-05-18T04:34:00.695Z,6.98
2023-05-18T04:36:31.426Z,6.89
2023-05-18T04:39:00.596Z,6.93
2023-05-18T04:41:30.772Z,6.91
2023-05-18T04:44:01.237Z,6.98
2023-05-18T04:46:30.058Z,7.04
2023-05-18T04:48:59.328Z,7.07
2023-05-18T04:51:28.260Z,7.10
2023-05-18T04:53:57.028Z,7.15
2023-05-18T04:56:25.805Z,7.18
2023-05-18T04:58:59.568Z,7.20
2023-05-18T05:01:28.481Z,7.25
2023-05-18T05:03:59.814Z,7.29
2023-05-18T05:06:29.023Z,7.31
2023-05-18T05:08:58.865Z,7.33
2023-05-18T05:11:29.603Z,7.35
2023-05-18T05:13:59.691Z,7.37
2023-05-18T05:16:28.439Z,7.35
2023-05-18T05:18:57.676Z,7.35
2023-05-18T05:21:27.208Z,7.31
2023-05-18T05:23:56.779Z,7.38
2023-05-18T05:26:26.312Z,7.38
2023-05-18T05:28:55.148Z,7.33
2023-05-18T05:31:25.636Z,7.32
2023-05-18T05:33:54.333Z,7.35
2023-05-18T05:36:23.488Z,7.36
2023-05-18T05:38:52.335Z,7.39
2023-05-18T05:41:21.913Z,7.40
2023-05-18T05:43:50.416Z,7.36
2023-05-18T05:46:19.374Z,7.43
2023-05-18T05:48:49.477Z,7.43
2023-05-18T05:51:18.455Z,7.43
2023-05-18T05:53:47.823Z,7.42
2023-05-18T05:56:16.613Z,7.40
2023-05-18T05:58:45.905Z,7.42
2023-05-18T06:01:15.314Z,7.50
2023-05-18T06:03:45.489Z,7.57
2023-05-18T06:06:16.569Z,7.60
2023-05-18T06:08:47.376Z,7.59
2023-05-18T06:11:15.889Z,7.59
2023-05-18T06:13:44.795Z,7.63
2023-05-18T06:16:13.875Z,7.63
2023-05-18T06:18:43.394Z,7.63
2023-05-18T06:21:12.218Z,7.69
2023-05-18T06:23:42.734Z,7.73
2023-05-18T06:26:11.671Z,7.71
2023-05-18T06:28:40.739Z,7.79
2023-05-18T06:31:09.454Z,7.86
2023-05-18T06:33:39.617Z,7.88
2023-05-18T06:36:08.879Z,7.90
2023-05-18T06:38:37.985Z,7.97
2023-05-18T06:41:08.320Z,8.05
2023-05-18T06:43:37.088Z,8.13
2023-05-18T06:46:06.246Z,8.13
2023-05-18T06:48:35.999Z,8.17
2023-05-18T06:51:04.899Z,8.18
2023-05-18T06:53:33.901Z,8.20
2023-05-18T06:56:03.059Z,8.22
2023-05-18T06:58:33.401Z,8.20
2023-05-18T07:01:02.932Z,8.19
2023-05-18T07:03:32.813Z,8.19
2023-05-18T07:06:01.573Z,8.22
2023-05-18T07:08:30.448Z,8.25
2023-05-18T07:10:59.653Z,8.31
2023-05-18T07:13:28.627Z,8.35
2023-05-18T07:15:59.385Z,8.37
2023-05-18T07:18:28.541Z,8.31
2023-05-18T07:20:57.209Z,8.30
2023-05-18T07:23:26.394Z,8.18
2023-05-18T07:25:54.993Z,8.21
2023-05-18T07:28:24.539Z,8.24
2023-05-18T07:30:53.120Z,8.21
2023-05-18T07:33:23.304Z,8.14
2023-05-18T07:35:51.871Z,7.81
2023-05-18T07:38:21.026Z,7.96
2023-05-18T07:40:49.701Z,7.95
2023-05-18T07:43:18.176Z,7.97
2023-05-18T07:45:47.114Z,8.00
2023-05-18T07:48:15.950Z,8.03
2023-05-18T07:50:46.167Z,8.08
2023-05-18T07:53:14.632Z,8.17
2023-05-18T07:55:43.628Z,8.26
2023-05-18T07:58:12.480Z,8.26
2023-05-18T08:00:46.507Z,8.02
2023-05-18T08:03:16.574Z,8.27
2023-05-18T08:05:46.752Z,8.27
2023-05-18T08:08:16.660Z,8.14
2023-05-18T08:10:45.654Z,8.17
2023-05-18T08:13:14.598Z,8.25
2023-05-18T08:15:47.492Z,8.27
2023-05-18T08:18:22.164Z,8.29
2023-05-18T08:20:54.181Z,8.29
2023-05-18T08:23:23.257Z,8.23
2023-05-18T08:25:52.269Z,8.27
2023-05-18T08:28:21.309Z,8.30
2023-05-18T08:30:50.553Z,8.27
2023-05-18T08:33:19.131Z,8.30
2023-05-18T08:35:48.218Z,8.30
2023-05-18T08:38:18.463Z,8.31
2023-05-18T08:40:54.408Z,8.23
2023-05-18T08:43:30.058Z,8.19
2023-05-18T08:46:04.227Z,8.26
2023-05-18T08:48:34.384Z,8.26
2023-05-18T08:51:04.860Z,8.31
2023-05-18T08:53:35.741Z,8.38
2023-05-18T08:56:08.626Z,8.22
2023-05-18T08:58:44.123Z,8.29
2023-05-18T09:01:13.665Z,8.39
2023-05-18T09:03:43.966Z,8.48
2023-05-18T09:06:13.538Z,8.52
2023-05-18T09:08:43.737Z,8.51
2023-05-18T09:11:14.963Z,8.57
2023-05-18T09:13:44.886Z,8.58
2023-05-18T09:16:13.959Z,8.59
2023-05-18T09:18:42.588Z,8.56
2023-05-18T09:21:11.930Z,8.57
2023-05-18T09:23:43.317Z,8.58
2023-05-18T09:26:13.570Z,8.60
2023-05-18T09:28:45.474Z,8.58
2023-05-18T09:31:21.186Z,8.56
2023-05-18T09:33:51.939Z,8.53
2023-05-18T09:36:25.983Z,8.47
2023-05-18T09:38:56.672Z,8.48
2023-05-18T09:41:28.184Z,8.52
2023-05-18T09:43:57.191Z,8.59
2023-05-18T09:46:26.100Z,8.57
2023-05-18T09:48:56.188Z,8.63
2023-05-18T09:51:25.815Z,8.70
2023-05-18T09:54:06.254Z,8.71
2023-05-18T09:56:37.800Z,8.62
2023-05-18T09:59:13.427Z,8.56
2023-05-18T10:01:58.023Z,8.58
2023-05-18T10:04:37.333Z,8.63
2023-05-18T10:07:12.004Z,8.65
2023-05-18T10:09:43.416Z,8.72
2023-05-18T10:12:13.399Z,8.77
2023-05-18T10:14:43.229Z,8.82
2023-05-18T10:17:16.424Z,8.83
2023-05-18T10:19:49.441Z,8.82
2023-05-18T10:22:19.834Z,8.82
2023-05-18T10:24:53.314Z,8.81
2023-05-18T10:27:25.964Z,8.79
2023-05-18T10:29:56.098Z,8.68
2023-05-18T10:32:25.584Z,8.62
2023-05-18T10:34:55.054Z,8.57
2023-05-18T10:37:24.980Z,8.64
2023-05-18T10:39:56.648Z,8.70
2023-05-18T10:42:27.892Z,8.74
2023-05-18T10:44:58.854Z,8.79
2023-05-18T10:47:29.175Z,8.76
2023-05-18T10:50:03.104Z,8.73
2023-05-18T10:52:34.149Z,8.72
2023-05-18T10:55:04.984Z,8.73
2023-05-18T10:57:37.147Z,8.75
2023-05-18T11:00:09.607Z,8.76
2023-05-18T11:02:43.098Z,8.82
2023-05-18T11:05:13.339Z,8.85
2023-05-18T11:07:46.623Z,8.87
2023-05-18T11:10:19.965Z,8.89
2023-05-18T11:12:48.659Z,8.85
2023-05-18T11:15:19.887Z,8.89
2023-05-18T11:17:51.581Z,8.78
2023-05-18T11:20:20.243Z,8.75
2023-05-18T11:22:51.641Z,8.73
2023-05-18T11:25:45.493Z,8.84
2023-05-18T11:28:15.364Z,8.96
2023-05-18T11:30:52.384Z,9.02
2023-05-18T11:33:26.840Z,9.09
2023-05-18T11:36:07.495Z,9.14
2023-05-18T11:38:51.985Z,9.08
2023-05-18T11:41:36.771Z,9.14
2023-05-18T11:44:17.471Z,9.14
2023-05-18T11:46:58.541Z,9.23
2023-05-18T11:49:29.331Z,9.30
2023-05-18T11:52:00.132Z,9.28
2023-05-18T11:54:29.360Z,9.32
2023-05-18T11:57:00.474Z,9.35
2023-05-18T11:59:34.017Z,9.33
2023-05-18T12:02:04.417Z,9.19
2023-05-18T12:04:34.413Z,9.14
2023-05-18T12:07:06.761Z,9.24
2023-05-18T12:09:35.973Z,9.36
2023-05-18T12:12:08.684Z,9.37
2023-05-18T12:14:37.900Z,9.15
2023-05-18T12:17:07.537Z,9.29
2023-05-18T12:19:43.133Z,9.23
2023-05-18T12:22:12.726Z,9.16
2023-05-18T12:24:42.519Z,9.17
2023-05-18T12:27:13.486Z,9.28
2023-05-18T12:29:43.111Z,9.39
2023-05-18T12:32:13.772Z,9.46
2023-05-18T12:34:42.721Z,9.44
2023-05-18T12:37:11.654Z,9.55
2023-05-18T12:39:40.309Z,9.44
2023-05-18T12:42:15.624Z,9.57
2023-05-18T12:44:46.293Z,9.69
2023-05-18T12:47:15.033Z,9.52
2023-05-18T12:49:45.130Z,9.65
2023-05-18T12:52:14.641Z,9.67
2023-05-18T12:54:56.083Z,9.75
2023-05-18T12:57:27.395Z,9.80
2023-05-18T12:59:56.437Z,9.89
2023-05-18T13:02:36.257Z,9.93
2023-05-18T13:05:08.978Z,9.97
2023-05-18T13:07:38.737Z,10.03
2023-05-18T13:10:08.627Z,10.03
2023-05-18T13:12:40.677Z,10.06
2023-05-18T13:15:13.569Z,10.08
2023-05-18T13:17:50.428Z,10.11
2023-05-18T13:20:19.490Z,10.08
2023-05-18T13:22:48.237Z,10.05
2023-05-18T13:25:16.870Z,10.00
2023-05-18T13:27:49.001Z,10.03
2023-05-18T13:30:18.220Z,10.08
2023-05-18T13:32:46.881Z,10.07
2023-05-18T13:35:16.154Z,10.06
2023-05-18T13:37:45.818Z,10.02
2023-05-18T13:40:15.046Z,10.03
2023-05-18T13:42:43.824Z,10.04
2023-05-18T13:45:16.096Z,10.02
2023-05-18T13:47:46.092Z,9.98
2023-05-18T13:50:15.078Z,9.99
2023-05-18T13:52:43.937Z,9.98
2023-05-18T13:55:12.614Z,9.99
2023-05-18T13:57:41.317Z,10.02
2023-05-18T14:00:12.847Z,10.01
2023-05-18T14:02:43.311Z,9.92
2023-05-18T14:05:13.206Z,9.87
2023-05-18T14:07:42.848Z,9.82
2023-05-18T14:10:13.606Z,9.80
2023-05-18T14:12:43.639Z,9.78
2023-05-18T14:15:14.209Z,9.79
2023-05-18T14:17:44.721Z,9.75
2023-05-18T14:20:14.488Z,9.83
2023-05-18T14:22:43.545Z,9.88
2023-05-18T14:25:14.738Z,9.93
2023-05-18T14:27:43.943Z,9.98
2023-05-18T14:30:15.222Z,9.94
2023-05-18T14:32:45.778Z,9.94
2023-05-18T14:35:15.099Z,9.92
2023-05-18T14:37:43.863Z,9.98
2023-05-18T14:40:13.541Z,9.97
2023-05-18T14:42:42.054Z,10.00
2023-05-18T14:45:12.010Z,10.03
2023-05-18T14:47:40.442Z,10.05
2023-05-18T14:50:11.553Z,10.09
2023-05-18T14:52:40.257Z,10.05
2023-05-18T14:55:09.684Z,10.02
2023-05-18T14:57:38.069Z,10.05
2023-05-18T15:00:07.675Z,10.07
2023-05-18T15:02:38.701Z,10.10
2023-05-18T15:05:10.240Z,10.12
2023-05-18T15:07:39.117Z,10.07
2023-05-18T15:10:09.721Z,10.03
2023-05-18T15:12:38.406Z,9.94
2023-05-18T15:15:08.717Z,9.98
2023-05-18T15:17:37.725Z,10.01
2023-05-18T15:20:08.118Z,10.00
2023-05-18T15:22:38.782Z,10.02
2023-05-18T15:25:08.771Z,10.06
2023-05-18T15:27:37.764Z,10.04
2023-05-18T15:30:11.817Z,9.93
2023-05-18T15:32:40.956Z,9.94
2023-05-18T15:35:10.289Z,9.99
2023-05-18T15:37:40.010Z,9.99
2023-05-18T15:40:10.247Z,10.01
2023-05-18T15:42:39.396Z,10.04
2023-05-18T15:45:09.503Z,10.06
2023-05-18T15:47:38.548Z,10.13
2023-05-18T15:50:08.658Z,10.17
2023-05-18T15:52:37.252Z,10.17
2023-05-18T15:55:08.861Z,10.16
2023-05-18T15:57:37.259Z,10.15
2023-05-18T16:00:08.042Z,10.15
2023-05-18T16:02:36.668Z,10.15
2023-05-18T16:05:05.809Z,10.12
2023-05-18T16:07:34.619Z,9.97
2023-05-18T16:10:03.512Z,9.96
2023-05-18T16:12:34.214Z,9.99
2023-05-18T16:15:03.258Z,10.01
2023-05-18T16:17:32.105Z,10.01
2023-05-18T16:20:03.550Z,10.01
2023-05-18T16:22:32.752Z,9.95
2023-05-18T16:25:01.527Z,9.84
2023-05-18T16:27:30.906Z,9.84
2023-05-18T16:30:01.348Z,9.87
2023-05-18T16:32:32.097Z,9.90
2023-05-18T16:35:01.374Z,9.94
2023-05-18T16:37:30.042Z,9.90
2023-05-18T16:39:59.002Z,9.85
2023-05-18T16:42:27.620Z,9.77
2023-05-18T16:45:01.036Z,9.72
2023-05-18T16:47:32.760Z,9.72
2023-05-18T16:50:02.131Z,9.75
2023-05-18T16:52:30.708Z,9.74
2023-05-18T16:54:59.787Z,9.76
2023-05-18T16:57:30.451Z,9.74
2023-05-18T17:00:01.555Z,9.72
2023-05-18T17:02:30.226Z,9.73
2023-05-18T17:04:59.519Z,9.75
2023-05-18T17:07:28.590Z,9.76
2023-05-18T17:09:57.520Z,9.74
2023-05-18T17:12:26.095Z,9.73
2023-05-18T17:14:55.085Z,9.63
2023-05-18T17:17:25.396Z,9.56
2023-05-18T17:19:54.395Z,9.57
2023-05-18T17:22:23.121Z,9.59
2023-05-18T17:24:51.956Z,9.62
2023-05-18T17:27:20.729Z,9.60
2023-05-18T17:29:49.538Z,9.60
2023-05-18T17:32:18.318Z,9.59
2023-05-18T17:34:48.718Z,9.53
2023-05-18T17:37:17.324Z,9.49
2023-05-18T17:39:45.970Z,9.43
2023-05-18T17:42:14.731Z,9.38
2023-05-18T17:44:45.579Z,9.36
2023-05-18T17:47:17.304Z,9.34
2023-05-18T17:49:47.677Z,9.34
2023-05-18T17:52:16.430Z,9.34
2023-05-18T17:54:45.521Z,9.32
2023-05-18T17:57:14.241Z,9.31
2023-05-18T17:59:43.479Z,9.26
2023-05-18T18:02:14.434Z,9.18
2023-05-18T18:04:45.535Z,9.12
2023-05-18T18:07:15.372Z,9.12
2023-05-18T18:09:45.061Z,9.10
2023-05-18T18:12:13.540Z,9.06
2023-05-18T18:14:42.530Z,9.05
2023-05-18T18:17:11.597Z,8.83
2023-05-18T18:19:40.944Z,9.05
2023-05-18T18:22:09.813Z,9.03
2023-05-18T18:24:40.518Z,9.00
2023-05-18T18:27:09.434Z,9.00
2023-05-18T18:29:38.545Z,9.00
2023-05-18T18:32:09.220Z,9.01
2023-05-18T18:34:38.670Z,9.01
2023-05-18T18:37:08.488Z,8.98
2023-05-18T18:39:37.300Z,8.94
2023-05-18T18:42:07.907Z,8.90
2023-05-18T18:44:36.535Z,8.86
2023-05-18T18:47:05.174Z,8.82
2023-05-18T18:49:34.066Z,8.79
2023-05-18T18:52:02.602Z,8.79
2023-05-18T18:54:31.446Z,8.80
2023-05-18T18:57:00.369Z,8.77
2023-05-18T18:59:30.719Z,8.79
2023-05-18T19:01:59.446Z,8.80
2023-05-18T19:04:28.423Z,8.80
2023-05-18T19:07:01.959Z,8.80
2023-05-18T19:09:35.106Z,8.80
2023-05-18T19:12:04.257Z,8.78
2023-05-18T19:14:34.109Z,8.73
2023-05-18T19:17:03.372Z,8.71
2023-05-18T19:19:32.764Z,8.71
2023-05-18T19:22:01.878Z,8.69
2023-05-18T19:24:30.457Z,8.68
2023-05-18T19:26:59.516Z,8.67
2023-05-18T19:29:28.202Z,8.68
2023-05-18T19:32:01.649Z,8.68
2023-05-18T19:34:33.372Z,8.65
2023-05-18T19:37:02.544Z,8.67
2023-05-18T19:39:31.370Z,8.64
2023-05-18T19:42:00.558Z,8.60
2023-05-18T19:44:29.380Z,8.58
2023-05-18T19:46:59.761Z,8.60
2023-05-18T19:49:29.999Z,8.61
2023-05-18T19:51:59.522Z,8.61
2023-05-18T19:54:28.748Z,8.64
2023-05-18T19:56:57.651Z,8.65
2023-05-18T19:59:27.029Z,8.65
2023-05-18T20:01:57.902Z,8.63
2023-05-18T20:04:30.515Z,8.63
2023-05-18T20:06:59.351Z,8.63
2023-05-18T20:09:29.316Z,8.63
2023-05-18T20:11:58.110Z,8.64
2023-05-18T20:14:27.166Z,8.65
2023-05-18T20:17:00.346Z,8.66
2023-05-18T20:19:30.663Z,8.67
2023-05-18T20:22:01.079Z,8.61
2023-05-18T20:24:30.055Z,8.62
2023-05-18T20:26:58.714Z,8.62
2023-05-18T20:29:28.149Z,8.62
2023-05-18T20:31:56.977Z,8.39
2023-05-18T20:34:26.152Z,8.65
2023-05-18T20:36:56.846Z,8.64
2023-05-18T20:39:29.006Z,8.62
2023-05-18T20:41:58.905Z,8.61
2023-05-18T20:44:28.907Z,8.62
2023-05-18T20:46:57.888Z,8.63
2023-05-18T20:49:27.233Z,8.63
2023-05-18T20:51:58.166Z,8.59
2023-05-18T20:54:27.348Z,8.57
2023-05-18T20:56:56.403Z,8.58
2023-05-18T20:59:25.119Z,8.57
2023-05-18T21:01:54.022Z,8.55
2023-05-18T21:04:23.235Z,8.53
2023-05-18T21:06:52.460Z,8.50
2023-05-18T21:09:23.402Z,8.53
2023-05-18T21:11:52.617Z,8.53
2023-05-18T21:14:21.130Z,8.53
2023-05-18T21:16:50.168Z,8.53
2023-05-18T21:19:23.965Z,8.52
2023-05-18T21:21:53.263Z,8.53
2023-05-18T21:24:23.680Z,8.52
2023-05-18T21:26:52.864Z,8.48
2023-05-18T21:29:21.716Z,8.49
2023-05-18T21:31:50.796Z,8.48
2023-05-18T21:34:19.449Z,8.50
2023-05-18T21:36:48.592Z,8.47
2023-05-18T21:39:17.603Z,8.36
2023-05-18T21:41:47.905Z,8.42
2023-05-18T21:44:17.759Z,8.40
2023-05-18T21:46:46.771Z,8.41
2023-05-18T21:49:15.193Z,8.40
2023-05-18T21:51:44.118Z,8.39
2023-05-18T21:54:12.682Z,8.41
2023-05-18T21:56:42.141Z,8.42
2023-05-18T21:59:12.901Z,8.43
2023-05-18T22:01:41.851Z,8.43
2023-05-18T22:04:11.040Z,8.42
2023-05-18T22:06:39.882Z,8.41
2023-05-18T22:09:09.070Z,8.40
2023-05-18T22:11:38.515Z,8.40
2023-05-18T22:14:06.969Z,8.42
2023-05-18T22:16:37.620Z,8.43
2023-05-18T22:19:09.001Z,8.43
2023-05-18T22:21:37.948Z,8.45
2023-05-18T22:24:07.430Z,8.44
2023-05-18T22:26:36.624Z,8.44
2023-05-18T22:29:05.566Z,8.44
2023-05-18T22:31:34.647Z,8.42
2023-05-18T22:34:05.410Z,8.41
2023-05-18T22:36:35.478Z,8.43
2023-05-18T22:39:04.794Z,8.39
2023-05-18T22:41:33.577Z,8.40
2023-05-18T22:44:02.387Z,8.42
2023-05-18T22:46:31.108Z,8.43
2023-05-18T22:49:00.720Z,8.45
2023-05-18T22:51:30.928Z,8.45
2023-05-18T22:54:00.041Z,8.45
2023-05-18T22:56:28.825Z,8.44
2023-05-18T22:58:57.823Z,8.43
2023-05-18T23:01:26.666Z,8.40
2023-05-18T23:03:55.743Z,8.39
2023-05-18T23:06:24.485Z,8.39
2023-05-18T23:08:55.408Z,8.40
2023-05-18T23:11:25.747Z,8.39
2023-05-18T23:13:54.839Z,8.38
2023-05-18T23:16:24.259Z,8.37
2023-05-18T23:18:53.903Z,8.33
2023-05-18T23:21:22.827Z,8.33
2023-05-18T23:23:52.149Z,8.33
2023-05-18T23:26:22.972Z,8.33
2023-05-18T23:28:51.662Z,8.35
2023-05-18T23:31:20.709Z,8.34
2023-05-18T23:33:50.327Z,8.31
2023-05-18T23:36:21.633Z,8.31
2023-05-18T23:38:50.432Z,8.32
2023-05-18T23:41:23.342Z,8.31
2023-05-18T23:43:53.390Z,8.31
2023-05-18T23:46:22.819Z,8.32
2023-05-18T23:48:52.665Z,8.32
2023-05-18T23:51:22.560Z,8.30
2023-05-18T23:53:54.361Z,8.28
2023-05-18T23:56:25.066Z,8.27
2023-05-18T23:58:54.827Z,8.28
